Time;durP1;ratioP1;P1;durP2;ratioP2;P2;SDS_P1;SDS_P2;PMS_P1;PMS_P2;Temp;Humidity;BMP_temperature;BMP_pressure;BME280_temperature;BME280_humidity;BME280_pressure;Samples;Min_cycle;Max_cycle;Signal;HPM_P1;HPM_P2
2024/03/29 01:44:33;;;;;;;3.17;0.80;;;;;;;;;;5034985;28;20437;-58
2024/03/29 01:47:00;;;;;;;3.88;1.13;;;;;;;;;;5052852;28;20057;-58
2024/03/29 01:49:27;;;;;;;6.43;1.10;;;;;;;;;;5053001;28;20061;-57
2024/03/29 01:51:54;;;;;;;3.85;0.80;;;;;;;;;;5053084;28;20079;-58
2024/03/29 01:54:21;;;;;;;4.78;1.02;;;;;;;;;;5052996;28;20064;-58
2024/03/29 01:56:48;;;;;;;2.80;0.88;;;;;;;;;;5052739;28;20513;-58
2024/03/29 01:59:17;;;;;;;5.22;1.10;;;;;;;;;;5052811;28;20525;-58
2024/03/29 02:01:46;;;;;;;3.57;1.00;;;;;;;;;;5052929;28;20057;-58
2024/03/29 02:04:13;;;;;;;3.30;1.20;;;;;;;;;;5052932;28;20494;-58
2024/03/29 02:06:40;;;;;;;3.90;1.00;;;;;;;;;;5052846;28;20391;-58
2024/03/29 02:09:07;;;;;;;2.72;0.93;;;;;;;;;;5052667;28;20394;-58
2024/03/29 02:11:34;;;;;;;3.53;1.00;;;;;;;;;;5052802;28;20052;-57
2024/03/29 02:14:01;;;;;;;2.45;1.10;;;;;;;;;;5052444;28;20057;-58
2024/03/29 02:16:29;;;;;;;2.95;0.80;;;;;;;;;;5052126;28;20049;-57
2024/03/29 02:18:56;;;;;;;3.88;0.90;;;;;;;;;;5052310;28;20048;-57
2024/03/29 02:21:23;;;;;;;8.10;1.20;;;;;;;;;;5052593;28;20057;-58
2024/03/29 02:23:56;;;;;;;3.33;1.00;;;;;;;;;;5052975;28;20053;-58
2024/03/29 02:26:24;;;;;;;2.17;0.93;;;;;;;;;;5052170;28;20053;-60
2024/03/29 02:28:51;;;;;;;3.00;1.20;;;;;;;;;;5052513;28;20056;-58
2024/03/29 02:31:18;;;;;;;3.10;0.70;;;;;;;;;;5052363;28;20064;-58
2024/03/29 02:33:45;;;;;;;3.95;0.80;;;;;;;;;;5052463;28;20060;-58
2024/03/29 02:36:13;;;;;;;6.15;1.05;;;;;;;;;;5052254;28;20059;-58
2024/03/29 02:38:40;;;;;;;3.15;0.70;;;;;;;;;;5052366;28;20049;-58
2024/03/29 02:41:08;;;;;;;3.08;0.82;;;;;;;;;;5051875;28;20052;-58
2024/03/29 02:43:35;;;;;;;1.77;0.68;;;;;;;;;;5052332;28;20076;-58
2024/03/29 02:46:02;;;;;;;2.70;0.85;;;;;;;;;;5051570;28;20067;-57
2024/03/29 02:48:28;;;;;;;2.70;0.88;;;;;;;;;;5052294;28;20052;-58
2024/03/29 02:50:54;;;;;;;2.65;0.68;;;;;;;;;;5052278;28;20056;-57
2024/03/29 02:53:21;;;;;;;2.92;0.90;;;;;;;;;;5052098;28;20048;-58
2024/03/29 02:55:47;;;;;;;2.15;0.77;;;;;;;;;;5051828;28;20068;-58
2024/03/29 02:58:15;;;;;;;2.10;0.70;;;;;;;;;;5052022;28;20439;-58
2024/03/29 03:00:41;;;;;;;2.60;0.80;;;;;;;;;;5051708;28;20049;-58
2024/03/29 03:03:08;;;;;;;2.38;0.80;;;;;;;;;;5052012;28;20075;-57
2024/03/29 03:05:33;;;;;;;2.17;0.88;;;;;;;;;;5052461;28;20053;-58
2024/03/29 03:11:02;;;;;;;2.35;0.98;;;;;;;;;;5058248;28;20049;-58
2024/03/29 03:13:31;;;;;;;3.38;0.80;;;;;;;;;;5052113;28;20060;-58
2024/03/29 03:15:57;;;;;;;1.98;0.80;;;;;;;;;;5051862;28;20414;-58
2024/03/29 03:18:23;;;;;;;3.20;0.77;;;;;;;;;;5052081;28;20059;-58
2024/03/29 03:20:53;;;;;;;2.58;0.70;;;;;;;;;;5052203;28;20148;-58
2024/03/29 03:23:19;;;;;;;;;;;;;;;;;;5052501;28;20060;-58
2024/03/29 03:25:46;;;;;;;2.22;0.80;;;;;;;;;;5051910;28;19920;-58
2024/03/29 03:28:11;;;;;;;1.92;0.88;;;;;;;;;;5053575;28;20483;-58
2024/03/29 03:30:40;;;;;;;3.33;0.77;;;;;;;;;;5055695;28;20056;-58
2024/03/29 03:33:06;;;;;;;1.87;0.70;;;;;;;;;;5055494;28;20057;-58
2024/03/29 03:35:33;;;;;;;4.13;0.77;;;;;;;;;;5055537;28;20072;-58
2024/03/29 03:37:59;;;;;;;2.30;0.77;;;;;;;;;;5055640;28;20101;-58
2024/03/29 03:40:25;;;;;;;3.08;1.05;;;;;;;;;;5047244;28;20053;-58
2024/03/29 03:42:51;;;;;;;2.13;0.90;;;;;;;;;;5055214;28;20110;-58
2024/03/29 03:45:18;;;;;;;2.85;0.77;;;;;;;;;;5055572;28;20052;-58
2024/03/29 03:47:45;;;;;;;2.88;0.63;;;;;;;;;;5055120;28;20414;-58
2024/03/29 03:50:12;;;;;;;4.72;1.10;;;;;;;;;;5055437;28;20053;-58
2024/03/29 03:52:38;;;;;;;2.88;0.90;;;;;;;;;;5055423;28;20383;-57
2024/03/29 03:55:05;;;;;;;2.67;0.95;;;;;;;;;;5055332;28;20060;-58
2024/03/29 03:57:31;;;;;;;2.25;0.80;;;;;;;;;;5055353;28;20399;-58
2024/03/29 03:59:58;;;;;;;2.50;0.90;;;;;;;;;;5055572;28;20045;-58
2024/03/29 04:02:24;;;;;;;2.03;0.80;;;;;;;;;;5054964;28;20053;-58
2024/03/29 04:04:52;;;;;;;2.65;0.70;;;;;;;;;;5055155;28;20123;-58
2024/03/29 04:07:17;;;;;;;3.70;0.70;;;;;;;;;;5055025;28;20056;-58
2024/03/29 04:09:44;;;;;;;2.60;0.70;;;;;;;;;;5055225;28;20053;-58
2024/03/29 04:12:10;;;;;;;4.68;1.00;;;;;;;;;;5055068;28;20064;-58
2024/03/29 04:14:37;;;;;;;1.88;0.50;;;;;;;;;;5055475;28;20056;-58
2024/03/29 04:17:03;;;;;;;1.92;0.68;;;;;;;;;;5055178;28;20049;-58
2024/03/29 04:19:30;;;;;;;1.58;0.65;;;;;;;;;;5055087;28;20052;-58
2024/03/29 04:21:57;;;;;;;3.95;0.90;;;;;;;;;;5054573;28;20053;-57
2024/03/29 04:24:24;;;;;;;3.13;0.70;;;;;;;;;;5054628;28;20056;-58
2024/03/29 04:26:50;;;;;;;1.50;0.70;;;;;;;;;;5054513;28;20060;-58
2024/03/29 04:29:17;;;;;;;2.85;0.60;;;;;;;;;;5054521;28;20049;-58
2024/03/29 04:31:45;;;;;;;2.42;0.80;;;;;;;;;;5054656;28;20502;-58
2024/03/29 04:34:12;;;;;;;2.17;0.80;;;;;;;;;;5054536;28;20466;-58
2024/03/29 04:36:39;;;;;;;3.95;1.27;;;;;;;;;;5054508;28;20053;-58
2024/03/29 04:39:07;;;;;;;2.67;1.15;;;;;;;;;;5053867;28;20053;-58
2024/03/29 04:41:35;;;;;;;3.03;1.02;;;;;;;;;;5054331;28;20049;-59
2024/03/29 04:44:02;;;;;;;2.80;0.80;;;;;;;;;;5054662;28;20060;-58
2024/03/29 04:46:30;;;;;;;3.92;1.20;;;;;;;;;;5054379;28;20057;-59
2024/03/29 04:48:56;;;;;;;3.40;1.10;;;;;;;;;;5054402;28;20061;-59
2024/03/29 04:51:23;;;;;;;4.20;1.10;;;;;;;;;;5053968;28;20132;-59
2024/03/29 04:53:49;;;;;;;6.57;1.60;;;;;;;;;;5054179;28;20068;-59
2024/03/29 04:56:18;;;;;;;3.42;1.15;;;;;;;;;;5053617;28;20072;-59
2024/03/29 04:58:45;;;;;;;3.45;0.93;;;;;;;;;;5053900;28;20057;-58
2024/03/29 05:01:12;;;;;;;3.65;0.82;;;;;;;;;;5054136;28;20053;-58
2024/03/29 05:03:39;;;;;;;4.90;1.08;;;;;;;;;;5054021;28;20063;-58
2024/03/29 05:06:06;;;;;;;2.58;1.02;;;;;;;;;;5053483;28;20179;-58
2024/03/29 05:08:33;;;;;;;2.78;0.98;;;;;;;;;;5053522;28;20064;-58
2024/03/29 05:10:59;;;;;;;3.92;1.35;;;;;;;;;;5053093;28;20072;-58
2024/03/29 05:13:29;;;;;;;4.43;1.30;;;;;;;;;;5053424;28;20060;-58
2024/03/29 05:15:56;;;;;;;5.03;1.20;;;;;;;;;;5053516;28;20057;-58
2024/03/29 05:18:22;;;;;;;3.80;1.00;;;;;;;;;;5053584;28;20414;-58
2024/03/29 05:20:51;;;;;;;4.60;1.13;;;;;;;;;;5053488;28;20060;-58
2024/03/29 05:23:17;;;;;;;3.45;1.15;;;;;;;;;;5053057;28;20063;-58
2024/03/29 05:25:44;;;;;;;3.50;1.35;;;;;;;;;;5053598;28;20060;-58
2024/03/29 05:28:11;;;;;;;4.57;1.38;;;;;;;;;;5052900;28;20052;-58
2024/03/29 05:30:39;;;;;;;3.67;1.20;;;;;;;;;;5053626;28;20155;-58
2024/03/29 05:33:06;;;;;;;2.42;1.10;;;;;;;;;;5053214;28;20057;-59
2024/03/29 05:35:34;;;;;;;2.35;0.95;;;;;;;;;;5053379;28;20502;-59
2024/03/29 05:38:01;;;;;;;2.85;1.20;;;;;;;;;;5053114;28;20474;-59
2024/03/29 05:40:28;;;;;;;3.17;1.10;;;;;;;;;;5053339;28;20430;-59
2024/03/29 05:42:55;;;;;;;3.75;1.30;;;;;;;;;;5052804;28;20422;-59
2024/03/29 05:45:23;;;;;;;2.15;1.20;;;;;;;;;;5053119;28;20064;-59
2024/03/29 05:47:52;;;;;;;3.90;1.00;;;;;;;;;;5052199;28;20064;-59
2024/03/29 05:50:18;;;;;;;2.88;1.13;;;;;;;;;;5052804;28;20059;-59
2024/03/29 05:52:45;;;;;;;4.57;1.35;;;;;;;;;;5052895;28;20053;-59
2024/03/29 05:55:12;;;;;;;4.53;1.08;;;;;;;;;;5053163;28;20053;-59
2024/03/29 05:57:41;;;;;;;3.33;1.00;;;;;;;;;;5052833;28;20049;-59
2024/03/29 06:00:08;;;;;;;3.37;1.20;;;;;;;;;;5053623;28;20053;-59
2024/03/29 06:02:35;;;;;;;3.35;1.33;;;;;;;;;;5052988;28;20053;-58
2024/03/29 06:05:04;;;;;;;2.67;1.10;;;;;;;;;;5052982;28;20060;-58
2024/03/29 06:07:33;;;;;;;2.78;1.23;;;;;;;;;;5052557;28;20069;-58
2024/03/29 06:10:00;;;;;;;4.18;1.27;;;;;;;;;;5052907;28;20057;-58
2024/03/29 06:12:27;;;;;;;2.85;1.00;;;;;;;;;;5052735;28;20064;-59
2024/03/29 06:17:38;;;;;;;3.80;1.20;;;;;;;;;;5058682;28;20048;-58
2024/03/29 06:20:07;;;;;;;4.22;1.20;;;;;;;;;;5052888;28;20052;-58
2024/03/29 06:22:34;;;;;;;4.95;1.40;;;;;;;;;;5052580;28;20064;-59
2024/03/29 06:25:04;;;;;;;7.32;1.30;;;;;;;;;;5052727;28;20403;-58
2024/03/29 06:27:31;;;;;;;3.05;1.33;;;;;;;;;;5052158;28;20049;-59
2024/03/29 06:29:58;;;;;;;4.18;1.30;;;;;;;;;;5052582;28;20065;-59
2024/03/29 06:32:25;;;;;;;2.60;1.20;;;;;;;;;;5052036;28;20048;-59
2024/03/29 06:34:51;;;;;;;2.55;1.25;;;;;;;;;;5051972;28;20057;-59
2024/03/29 06:37:21;;;;;;;3.60;1.13;;;;;;;;;;5051498;28;20049;-58
2024/03/29 06:39:48;;;;;;;6.93;1.40;;;;;;;;;;5052255;28;20053;-58
2024/03/29 06:42:15;;;;;;;4.65;1.42;;;;;;;;;;5052075;28;20387;-58
2024/03/29 06:44:42;;;;;;;5.07;1.63;;;;;;;;;;5052286;28;20064;-58
2024/03/29 06:47:08;;;;;;;3.78;1.55;;;;;;;;;;5051345;28;20057;-58
2024/03/29 06:49:36;;;;;;;5.25;1.20;;;;;;;;;;5052131;28;20057;-58
2024/03/29 06:52:02;;;;;;;2.80;1.10;;;;;;;;;;5051973;28;20414;-57
2024/03/29 06:54:32;;;;;;;3.35;1.38;;;;;;;;;;5052352;28;20056;-58
2024/03/29 06:56:59;;;;;;;3.67;1.38;;;;;;;;;;5051729;28;20045;-57
2024/03/29 06:59:26;;;;;;;2.25;1.20;;;;;;;;;;5052184;28;20371;-58
2024/03/29 07:01:53;;;;;;;3.08;1.25;;;;;;;;;;5053423;28;20504;-58
2024/03/29 07:04:20;;;;;;;2.75;1.17;;;;;;;;;;5055925;28;20049;-58
2024/03/29 07:06:51;;;;;;;2.35;1.15;;;;;;;;;;5055736;28;20596;-58
2024/03/29 07:09:17;;;;;;;2.70;1.10;;;;;;;;;;5056522;28;20049;-58
2024/03/29 07:11:47;;;;;;;2.70;1.00;;;;;;;;;;5055782;28;20057;-58
2024/03/29 07:14:14;;;;;;;4.35;1.30;;;;;;;;;;5055769;28;20135;-58
2024/03/29 07:16:41;;;;;;;2.70;1.20;;;;;;;;;;5055581;28;20067;-58
2024/03/29 07:19:08;;;;;;;2.53;1.02;;;;;;;;;;5055941;28;20406;-57
2024/03/29 07:21:34;;;;;;;2.38;1.00;;;;;;;;;;5056012;28;20504;-57
2024/03/29 07:24:01;;;;;;;2.92;1.10;;;;;;;;;;5055561;28;20057;-57
2024/03/29 07:26:28;;;;;;;2.67;1.10;;;;;;;;;;5055608;28;20053;-57
2024/03/29 07:28:56;;;;;;;2.75;1.00;;;;;;;;;;5055377;28;20049;-57
2024/03/29 07:31:23;;;;;;;2.33;1.20;;;;;;;;;;5055805;28;20049;-57
2024/03/29 07:33:50;;;;;;;3.55;1.00;;;;;;;;;;5055452;28;20053;-57
2024/03/29 07:36:17;;;;;;;1.83;1.00;;;;;;;;;;5055527;28;20053;-58
2024/03/29 07:38:44;;;;;;;3.72;1.00;;;;;;;;;;5055277;28;20052;-58
2024/03/29 07:41:11;;;;;;;2.72;1.20;;;;;;;;;;5055192;28;20076;-58
2024/03/29 07:43:39;;;;;;;1.98;1.00;;;;;;;;;;5055554;28;20048;-58
2024/03/29 07:46:08;;;;;;;2.80;0.90;;;;;;;;;;5055113;28;20486;-59
2024/03/29 07:48:35;;;;;;;2.33;1.30;;;;;;;;;;5055373;28;20044;-59
2024/03/29 07:51:02;;;;;;;2.95;1.10;;;;;;;;;;5055417;28;20386;-60
2024/03/29 07:53:29;;;;;;;2.42;1.00;;;;;;;;;;5055303;28;20068;-58
2024/03/29 07:55:56;;;;;;;2.58;1.08;;;;;;;;;;5055143;28;20064;-59
2024/03/29 07:58:23;;;;;;;1.77;0.77;;;;;;;;;;5054927;28;20060;-59
2024/03/29 08:00:50;;;;;;;1.90;0.90;;;;;;;;;;5054984;28;20049;-59
2024/03/29 08:03:18;;;;;;;2.53;1.00;;;;;;;;;;5054784;28;20391;-59
2024/03/29 08:05:54;;;;;;;2.10;0.98;;;;;;;;;;5054953;28;20076;-59
2024/03/29 08:08:22;;;;;;;2.25;1.00;;;;;;;;;;5054513;28;20053;-59
2024/03/29 08:10:49;;;;;;;2.08;1.10;;;;;;;;;;5054696;28;20064;-60
2024/03/29 08:13:17;;;;;;;3.65;1.10;;;;;;;;;;5054101;28;20049;-60
2024/03/29 08:15:44;;;;;;;2.35;1.13;;;;;;;;;;5054651;28;20056;-60
2024/03/29 08:18:10;;;;;;;2.28;0.90;;;;;;;;;;5054799;28;20152;-60
2024/03/29 08:20:38;;;;;;;2.58;0.85;;;;;;;;;;5054847;28;20388;-60
2024/03/29 08:23:05;;;;;;;2.70;0.90;;;;;;;;;;5054134;28;20064;-60
2024/03/29 08:25:32;;;;;;;3.72;1.40;;;;;;;;;;5054667;28;20553;-60
2024/03/29 08:27:59;;;;;;;1.85;0.80;;;;;;;;;;5054401;28;20518;-60
2024/03/29 08:30:26;;;;;;;1.13;0.70;;;;;;;;;;5046527;28;20402;-60
2024/03/29 08:32:53;;;;;;;2.42;1.00;;;;;;;;;;5054819;28;20057;-60
2024/03/29 08:35:20;;;;;;;1.85;0.80;;;;;;;;;;5055036;28;20399;-60
2024/03/29 08:37:50;;;;;;;1.33;0.85;;;;;;;;;;5054648;28;20387;-59
2024/03/29 08:40:16;;;;;;;3.55;0.98;;;;;;;;;;5053827;28;20360;-60
2024/03/29 08:42:44;;;;;;;1.95;0.85;;;;;;;;;;5053897;28;20059;-59
2024/03/29 08:45:11;;;;;;;2.25;0.80;;;;;;;;;;5053702;28;20415;-60
2024/03/29 08:47:38;;;;;;;1.38;0.65;;;;;;;;;;5053535;28;20049;-60
2024/03/29 08:50:05;;;;;;;2.00;0.90;;;;;;;;;;5054267;28;20048;-59
2024/03/29 08:52:32;;;;;;;2.35;0.90;;;;;;;;;;5053949;28;20057;-60
2024/03/29 08:55:00;;;;;;;1.33;0.80;;;;;;;;;;5054134;28;20045;-59
2024/03/29 08:57:27;;;;;;;2.72;0.70;;;;;;;;;;5054156;28;20064;-59
2024/03/29 08:59:54;;;;;;;1.85;0.90;;;;;;;;;;5054135;28;20056;-60
2024/03/29 09:02:21;;;;;;;2.22;0.80;;;;;;;;;;5053452;28;20057;-60
2024/03/29 09:04:48;;;;;;;1.40;0.68;;;;;;;;;;5054009;28;20053;-60
2024/03/29 09:07:16;;;;;;;2.72;1.00;;;;;;;;;;5053882;28;20483;-60
2024/03/29 09:09:43;;;;;;;1.40;0.80;;;;;;;;;;5053814;28;20060;-60
2024/03/29 09:12:11;;;;;;;1.50;0.80;;;;;;;;;;5053737;28;20064;-60
2024/03/29 09:14:38;;;;;;;1.73;0.80;;;;;;;;;;5053762;28;20052;-59
2024/03/29 09:17:06;;;;;;;2.72;0.73;;;;;;;;;;5053350;28;20056;-59
2024/03/29 09:19:33;;;;;;;1.75;0.90;;;;;;;;;;5053605;28;20049;-59
2024/03/29 09:22:00;;;;;;;1.58;0.70;;;;;;;;;;5053582;28;20076;-60
2024/03/29 09:24:27;;;;;;;2.97;0.80;;;;;;;;;;5053118;28;20052;-59
2024/03/29 09:26:54;;;;;;;2.05;1.00;;;;;;;;;;5052719;28;20048;-59
2024/03/29 09:29:22;;;;;;;1.33;0.70;;;;;;;;;;5053339;28;20048;-59
2024/03/29 09:31:49;;;;;;;3.15;0.90;;;;;;;;;;5053434;28;20049;-59
2024/03/29 09:34:16;;;;;;;1.92;0.80;;;;;;;;;;5053440;28;20057;-59
2024/03/29 09:36:43;;;;;;;2.83;0.80;;;;;;;;;;5052853;28;20486;-59
2024/03/29 09:39:09;;;;;;;2.10;0.70;;;;;;;;;;5053486;28;20372;-59
2024/03/29 09:41:37;;;;;;;3.92;0.75;;;;;;;;;;5053367;28;20475;-60
2024/03/29 09:44:05;;;;;;;1.77;0.70;;;;;;;;;;5053055;28;20061;-58
2024/03/29 09:46:34;;;;;;;3.40;0.60;;;;;;;;;;5052411;28;20063;-59
2024/03/29 09:49:02;;;;;;;2.33;0.73;;;;;;;;;;5052761;28;20059;-59
2024/03/29 09:51:30;;;;;;;2.47;0.82;;;;;;;;;;5053000;28;20052;-59
2024/03/29 09:53:59;;;;;;;1.42;0.75;;;;;;;;;;5053087;28;20126;-59
2024/03/29 09:56:27;;;;;;;2.33;0.80;;;;;;;;;;5052903;28;20056;-59
2024/03/29 09:58:54;;;;;;;1.63;0.82;;;;;;;;;;5052789;28;20053;-59
2024/03/29 10:01:21;;;;;;;1.75;0.75;;;;;;;;;;5052561;28;20060;-59
2024/03/29 10:03:51;;;;;;;1.63;0.77;;;;;;;;;;5052962;28;20049;-59
2024/03/29 10:06:19;;;;;;;1.65;0.57;;;;;;;;;;5052709;28;20491;-59
2024/03/29 10:08:46;;;;;;;1.90;0.77;;;;;;;;;;5052392;28;20049;-59
2024/03/29 10:11:16;;;;;;;1.35;0.65;;;;;;;;;;5052688;28;20054;-59
2024/03/29 10:13:44;;;;;;;1.55;0.80;;;;;;;;;;5052573;28;20060;-58
2024/03/29 10:16:12;;;;;;;1.17;0.63;;;;;;;;;;5052323;28;20061;-59
2024/03/29 10:18:41;;;;;;;2.47;0.73;;;;;;;;;;5052406;28;20056;-59
2024/03/29 10:21:09;;;;;;;1.67;0.73;;;;;;;;;;5052112;28;20080;-59
2024/03/29 10:23:36;;;;;;;1.20;0.70;;;;;;;;;;5051939;28;20049;-59
2024/03/29 10:26:04;;;;;;;1.35;0.70;;;;;;;;;;5052205;28;20132;-59
2024/03/29 10:28:32;;;;;;;1.08;0.60;;;;;;;;;;5052008;28;20045;-59
2024/03/29 10:30:59;;;;;;;1.20;0.50;;;;;;;;;;5051993;28;20053;-59
2024/03/29 10:33:28;;;;;;;2.00;0.77;;;;;;;;;;5052022;28;20482;-59
2024/03/29 10:35:55;;;;;;;1.92;0.70;;;;;;;;;;5051936;28;20057;-59
2024/03/29 10:38:25;;;;;;;1.90;0.90;;;;;;;;;;5052358;28;20060;-59
2024/03/29 10:40:51;;;;;;;;;;;;;;;;;;5052464;28;20387;-59
2024/03/29 10:43:19;;;;;;;1.00;0.50;;;;;;;;;;5052160;28;19920;-59
2024/03/29 10:45:46;;;;;;;2.80;0.77;;;;;;;;;;5051812;28;20390;-58
2024/03/29 10:48:15;;;;;;;1.50;0.57;;;;;;;;;;5051698;28;20061;-59
2024/03/29 10:50:43;;;;;;;2.22;1.00;;;;;;;;;;5052349;28;20052;-59
2024/03/29 10:53:11;;;;;;;1.45;0.60;;;;;;;;;;5051841;28;20049;-59
2024/03/29 10:55:39;;;;;;;1.48;0.80;;;;;;;;;;5051894;28;20048;-59
2024/03/29 10:58:06;;;;;;;1.02;0.70;;;;;;;;;;5051730;28;20063;-58
2024/03/29 11:00:37;;;;;;;1.58;0.60;;;;;;;;;;5052013;28;20156;-59
2024/03/29 11:03:09;;;;;;;1.35;0.68;;;;;;;;;;5051971;28;20061;-59
2024/03/29 11:05:36;;;;;;;0.85;0.50;;;;;;;;;;5052072;28;20060;-59
2024/03/29 11:08:04;;;;;;;1.30;0.70;;;;;;;;;;5051013;28;20057;-59
2024/03/29 11:10:33;;;;;;;2.00;0.60;;;;;;;;;;5050953;28;20478;-59
2024/03/29 11:13:03;;;;;;;1.70;0.77;;;;;;;;;;5051028;28;20060;-59
2024/03/29 11:15:31;;;;;;;2.40;0.60;;;;;;;;;;5047046;28;20054;-59
2024/03/29 11:17:58;;;;;;;1.30;0.68;;;;;;;;;;5047564;28;20053;-59
2024/03/29 11:20:33;;;;;;;1.02;0.57;;;;;;;;;;5051234;28;20093;-59
2024/03/29 11:23:05;;;;;;;0.93;0.50;;;;;;;;;;5051309;28;20057;-59
2024/03/29 11:25:38;;;;;;;1.38;0.52;;;;;;;;;;5050977;28;20053;-58
2024/03/29 11:28:08;;;;;;;1.45;0.60;;;;;;;;;;5050695;28;20057;-59
2024/03/29 11:30:40;;;;;;;1.83;0.65;;;;;;;;;;5050641;28;20049;-58
2024/03/29 11:33:07;;;;;;;1.80;0.50;;;;;;;;;;5050707;28;20064;-59
2024/03/29 11:35:33;;;;;;;1.30;0.50;;;;;;;;;;5051021;28;20407;-58
2024/03/29 11:38:00;;;;;;;1.10;0.50;;;;;;;;;;5050950;28;20060;-59
2024/03/29 11:40:30;;;;;;;1.00;0.50;;;;;;;;;;5050467;28;20403;-59
2024/03/29 11:42:57;;;;;;;1.60;0.70;;;;;;;;;;5051191;28;20060;-58
2024/03/29 11:45:27;;;;;;;1.45;0.73;;;;;;;;;;5051905;28;20053;-59
2024/03/29 11:47:55;;;;;;;1.52;0.60;;;;;;;;;;5051040;28;20430;-59
2024/03/29 11:50:22;;;;;;;1.80;0.70;;;;;;;;;;5054913;28;20467;-58
2024/03/29 11:52:49;;;;;;;1.23;0.55;;;;;;;;;;5054989;28;20049;-59
2024/03/29 11:55:16;;;;;;;1.58;0.57;;;;;;;;;;5055160;28;20398;-59
2024/03/29 11:57:43;;;;;;;1.70;0.55;;;;;;;;;;5055529;28;20053;-59
2024/03/29 12:00:11;;;;;;;1.23;0.57;;;;;;;;;;5054800;28;20060;-58
2024/03/29 12:02:40;;;;;;;2.22;0.60;;;;;;;;;;5055274;28;20053;-58
2024/03/29 12:05:08;;;;;;;;;;;;;;;;;;5055239;28;20057;-58
2024/03/29 12:07:35;;;;;;;2.30;0.80;;;;;;;;;;5054541;28;19921;-58
2024/03/29 12:10:01;;;;;;;0.90;0.47;;;;;;;;;;5054912;28;20060;-59
2024/03/29 12:12:31;;;;;;;1.42;0.50;;;;;;;;;;5054665;28;20049;-57
2024/03/29 12:14:57;;;;;;;0.80;0.50;;;;;;;;;;5054962;28;20061;-57
2024/03/29 12:17:24;;;;;;;1.35;0.57;;;;;;;;;;5054265;28;20407;-58
2024/03/29 12:20:01;;;;;;;1.23;0.50;;;;;;;;;;5054641;28;20064;-57
2024/03/29 12:22:27;;;;;;;1.23;0.60;;;;;;;;;;5054598;28;20059;-59
2024/03/29 12:24:54;;;;;;;1.20;0.60;;;;;;;;;;5053640;28;20414;-57
2024/03/29 12:27:24;;;;;;;2.28;0.93;;;;;;;;;;5053981;28;20057;-58
2024/03/29 12:29:50;;;;;;;;;;;;;;;;;;5054527;28;20060;-58
2024/03/29 12:32:19;;;;;;;1.48;0.57;;;;;;;;;;5054771;28;19921;-58
2024/03/29 12:34:47;;;;;;;1.67;0.68;;;;;;;;;;5054019;28;20053;-58
2024/03/29 12:37:16;;;;;;;1.23;0.50;;;;;;;;;;5054411;28;20053;-58
2024/03/29 12:39:43;;;;;;;1.55;0.60;;;;;;;;;;5054001;28;20379;-58
2024/03/29 12:42:11;;;;;;;1.45;0.57;;;;;;;;;;5054075;28;20052;-57
2024/03/29 12:44:38;;;;;;;1.55;0.50;;;;;;;;;;5054058;28;20053;-57
2024/03/29 12:47:05;;;;;;;1.77;0.80;;;;;;;;;;5053817;28;20081;-57
2024/03/29 12:49:31;;;;;;;1.35;0.70;;;;;;;;;;5053703;28;20052;-58
2024/03/29 12:51:58;;;;;;;1.58;0.60;;;;;;;;;;5054312;28;20482;-58
2024/03/29 12:54:27;;;;;;;1.35;0.55;;;;;;;;;;5054165;28;20060;-58
2024/03/29 12:56:54;;;;;;;2.13;0.63;;;;;;;;;;5053825;28;20056;-58
2024/03/29 12:59:21;;;;;;;1.25;0.40;;;;;;;;;;5053726;28;20057;-57
2024/03/29 13:01:47;;;;;;;1.55;0.70;;;;;;;;;;5054115;28;20524;-59
2024/03/29 13:04:14;;;;;;;1.00;0.55;;;;;;;;;;5053920;28;20407;-57
2024/03/29 13:06:41;;;;;;;1.95;0.60;;;;;;;;;;5053851;28;20402;-58
2024/03/29 13:09:09;;;;;;;1.33;0.63;;;;;;;;;;5053455;28;20498;-58
2024/03/29 13:11:37;;;;;;;2.22;0.60;;;;;;;;;;5053332;28;20052;-57
2024/03/29 13:14:05;;;;;;;2.53;0.68;;;;;;;;;;5053841;28;20474;-58
2024/03/29 13:16:31;;;;;;;1.38;0.63;;;;;;;;;;5053968;28;20061;-57
2024/03/29 13:18:58;;;;;;;2.63;0.75;;;;;;;;;;5053511;28;20410;-58
2024/03/29 13:21:25;;;;;;;1.30;0.70;;;;;;;;;;5053647;28;20072;-58
2024/03/29 13:23:52;;;;;;;1.17;0.60;;;;;;;;;;5053253;28;20052;-58
2024/03/29 13:26:19;;;;;;;2.17;0.70;;;;;;;;;;5053445;28;20057;-57
2024/03/29 13:28:47;;;;;;;1.63;0.43;;;;;;;;;;5053097;28;20418;-58
2024/03/29 13:31:14;;;;;;;1.05;0.50;;;;;;;;;;5053247;28;20463;-58
2024/03/29 13:33:40;;;;;;;1.95;0.70;;;;;;;;;;5052831;28;20075;-58
2024/03/29 13:36:08;;;;;;;1.20;0.60;;;;;;;;;;5052720;28;20053;-58
2024/03/29 13:38:36;;;;;;;2.03;0.65;;;;;;;;;;5052753;28;20049;-58
2024/03/29 13:41:03;;;;;;;1.33;0.70;;;;;;;;;;5052887;28;20052;-58
2024/03/29 13:43:30;;;;;;;1.73;0.93;;;;;;;;;;5053371;28;20056;-58
2024/03/29 13:46:00;;;;;;;1.20;0.75;;;;;;;;;;5052540;28;20395;-58
2024/03/29 13:48:27;;;;;;;1.50;0.93;;;;;;;;;;5052691;28;20052;-58
2024/03/29 13:50:54;;;;;;;1.77;1.10;;;;;;;;;;5052632;28;20053;-57
2024/03/29 13:53:21;;;;;;;1.38;0.70;;;;;;;;;;5052988;28;20414;-57
2024/03/29 13:55:47;;;;;;;1.65;0.70;;;;;;;;;;5052492;28;20135;-58
2024/03/29 13:58:14;;;;;;;2.90;0.70;;;;;;;;;;5052314;28;20410;-58
2024/03/29 14:00:42;;;;;;;2.53;0.80;;;;;;;;;;5052469;28;20049;-57
2024/03/29 14:03:10;;;;;;;1.98;0.80;;;;;;;;;;5052644;28;20064;-57
2024/03/29 14:05:38;;;;;;;1.90;0.90;;;;;;;;;;5052498;28;20505;-59
2024/03/29 14:08:05;;;;;;;2.03;1.02;;;;;;;;;;5052540;28;20057;-57
2024/03/29 14:10:35;;;;;;;1.95;1.20;;;;;;;;;;5052695;28;20045;-58
2024/03/29 14:13:04;;;;;;;1.48;0.80;;;;;;;;;;5052252;28;20525;-57
2024/03/29 14:15:31;;;;;;;2.30;0.70;;;;;;;;;;5052555;28;20403;-58
2024/03/29 14:17:58;;;;;;;1.63;0.70;;;;;;;;;;5052744;28;20061;-58
2024/03/29 14:20:26;;;;;;;2.53;0.90;;;;;;;;;;5052243;28;20395;-57
2024/03/29 14:22:56;;;;;;;1.30;0.60;;;;;;;;;;5052168;28;20517;-58
2024/03/29 14:25:23;;;;;;;1.75;0.70;;;;;;;;;;5052660;28;20048;-57
2024/03/29 14:27:55;;;;;;;1.20;0.60;;;;;;;;;;5052108;28;20167;-58
2024/03/29 14:30:22;;;;;;;1.00;0.60;;;;;;;;;;5052130;28;20049;-57
2024/03/29 14:32:51;;;;;;;1.35;0.70;;;;;;;;;;5051817;28;20053;-57
2024/03/29 14:35:18;;;;;;;3.55;0.80;;;;;;;;;;5051846;28;20072;-58
2024/03/29 14:37:46;;;;;;;0.98;0.60;;;;;;;;;;5052126;28;20053;-58
2024/03/29 14:40:14;;;;;;;1.30;0.70;;;;;;;;;;5051719;28;20391;-58
2024/03/29 14:42:41;;;;;;;1.50;0.80;;;;;;;;;;5051903;28;20056;-58
2024/03/29 14:45:11;;;;;;;1.45;0.70;;;;;;;;;;5051764;28;20501;-57
2024/03/29 14:47:38;;;;;;;1.40;0.75;;;;;;;;;;5030511;28;20061;-58
2024/03/29 14:50:07;;;;;;;1.33;0.68;;;;;;;;;;5049014;28;20061;-58
2024/03/29 14:52:35;;;;;;;1.40;0.70;;;;;;;;;;5052062;28;20060;-58
2024/03/29 14:55:03;;;;;;;2.45;0.70;;;;;;;;;;5051846;28;20052;-58
2024/03/29 14:57:30;;;;;;;1.20;0.77;;;;;;;;;;5044677;28;20398;-58
2024/03/29 14:59:57;;;;;;;1.60;0.60;;;;;;;;;;5051641;28;20057;-58
2024/03/29 15:02:24;;;;;;;2.30;0.70;;;;;;;;;;5043950;28;20398;-58
2024/03/29 15:04:51;;;;;;;1.45;0.60;;;;;;;;;;5052192;28;20057;-58
2024/03/29 15:07:18;;;;;;;0.95;0.63;;;;;;;;;;5043602;28;20057;-58
2024/03/29 15:09:45;;;;;;;1.27;0.65;;;;;;;;;;5051836;28;20057;-58
2024/03/29 15:12:13;;;;;;;1.23;0.70;;;;;;;;;;5051706;28;20049;-58
2024/03/29 15:14:40;;;;;;;2.28;0.88;;;;;;;;;;5052134;28;20422;-58
2024/03/29 15:17:06;;;;;;;1.20;0.70;;;;;;;;;;5043476;28;20049;-58
2024/03/29 15:19:34;;;;;;;2.75;0.70;;;;;;;;;;5051669;28;20387;-58
2024/03/29 15:22:00;;;;;;;3.15;0.60;;;;;;;;;;5043543;28;20132;-58
2024/03/29 15:24:27;;;;;;;1.67;0.70;;;;;;;;;;5054218;28;20063;-58
2024/03/29 15:26:58;;;;;;;1.45;0.65;;;;;;;;;;5047369;28;20155;-59
2024/03/29 15:29:25;;;;;;;1.02;0.60;;;;;;;;;;5055865;28;20052;-58
2024/03/29 15:31:52;;;;;;;2.13;0.60;;;;;;;;;;5046587;28;20049;-59
2024/03/29 15:34:19;;;;;;;1.13;0.60;;;;;;;;;;5055448;28;20052;-59
2024/03/29 15:36:46;;;;;;;1.27;0.70;;;;;;;;;;5047177;28;20053;-58
2024/03/29 15:39:14;;;;;;;1.23;0.60;;;;;;;;;;5055163;28;20060;-58
2024/03/29 15:41:43;;;;;;;0.80;0.50;;;;;;;;;;5047170;28;20056;-58
2024/03/29 15:44:12;;;;;;;1.40;0.70;;;;;;;;;;5055232;28;20049;-58
2024/03/29 15:46:42;;;;;;;2.90;0.80;;;;;;;;;;5046590;28;20052;-58
2024/03/29 15:49:09;;;;;;;0.93;0.50;;;;;;;;;;5055449;28;20056;-58
2024/03/29 15:51:36;;;;;;;1.63;0.80;;;;;;;;;;5055529;28;20049;-58
2024/03/29 15:54:06;;;;;;;1.83;0.77;;;;;;;;;;5055132;28;20064;-58
2024/03/29 15:56:34;;;;;;;1.65;0.60;;;;;;;;;;5047355;28;20044;-58
2024/03/29 15:59:01;;;;;;;1.50;0.77;;;;;;;;;;5055031;28;20053;-57
2024/03/29 16:01:28;;;;;;;1.95;0.70;;;;;;;;;;5046801;28;20053;-57
2024/03/29 16:03:56;;;;;;;1.65;0.75;;;;;;;;;;5054813;28;20053;-58
2024/03/29 16:06:23;;;;;;;1.95;0.80;;;;;;;;;;5046448;28;20059;-58
2024/03/29 16:08:50;;;;;;;2.92;0.90;;;;;;;;;;5054378;28;20060;-58
2024/03/29 16:11:17;;;;;;;1.40;0.70;;;;;;;;;;5046885;28;20061;-58
2024/03/29 16:13:44;;;;;;;1.80;0.80;;;;;;;;;;5055062;28;20057;-58
2024/03/29 16:16:10;;;;;;;2.05;0.90;;;;;;;;;;5046647;28;20056;-58
2024/03/29 16:18:37;;;;;;;1.40;0.70;;;;;;;;;;5054278;28;20486;-57
2024/03/29 16:21:04;;;;;;;1.38;0.80;;;;;;;;;;5046808;28;20064;-58
2024/03/29 16:23:32;;;;;;;1.58;0.90;;;;;;;;;;5054391;28;20057;-58
2024/03/29 16:25:58;;;;;;;1.50;0.77;;;;;;;;;;5046250;28;20503;-58
2024/03/29 16:28:26;;;;;;;1.73;0.80;;;;;;;;;;5046016;28;20049;-58
2024/03/29 16:30:51;;;;;;;2.38;0.80;;;;;;;;;;5047396;28;20065;-58
2024/03/29 16:33:21;;;;;;;2.10;0.98;;;;;;;;;;5053240;28;20060;-58